Time;durP1;ratioP1;P1;durP2;ratioP2;P2;SDS_P1;SDS_P2;PMS_P1;PMS_P2;Temp;Humidity;BMP_temperature;BMP_pressure;BME280_temperature;BME280_humidity;BME280_pressure;Samples;Min_cycle;Max_cycle;Signal;HPM_P1;HPM_P2
2021/07/30 00:00:16;;;;;;;12.73;8.80;;;;;;;;;;6191164;28;20249;-74
2021/07/30 00:03:18;;;;;;;14.57;8.50;;;;;;;;;;6196765;28;20104;-70
2021/07/30 00:06:21;;;;;;;15.18;9.38;;;;;;;;;;6188964;28;20406;-74
2021/07/30 00:09:22;;;;;;;16.08;8.95;;;;;;;;;;6198125;28;20152;-71
2021/07/30 00:12:24;;;;;;;15.30;9.15;;;;;;;;;;6188357;28;20105;-71
2021/07/30 00:15:25;;;;;;;17.00;9.93;;;;;;;;;;6187680;28;20619;-74
2021/07/30 00:18:27;;;;;;;14.90;10.02;;;;;;;;;;6194332;28;20107;-70
2021/07/30 00:21:30;;;;;;;13.00;9.45;;;;;;;;;;6192858;28;20046;-71
2021/07/30 00:24:31;;;;;;;13.55;9.77;;;;;;;;;;6199554;28;20564;-70
2021/07/30 00:27:33;;;;;;;13.18;10.00;;;;;;;;;;6197844;28;20180;-73
2021/07/30 00:30:35;;;;;;;12.27;8.90;;;;;;;;;;6188504;28;20057;-70
2021/07/30 00:33:36;;;;;;;17.70;9.82;;;;;;;;;;6192481;28;20385;-73
2021/07/30 00:36:40;;;;;;;15.05;8.68;;;;;;;;;;6183929;28;20041;-70
2021/07/30 00:39:41;;;;;;;15.70;9.35;;;;;;;;;;6197602;28;20054;-71
2021/07/30 00:42:51;;;;;;;16.67;9.25;;;;;;;;;;6189483;28;20069;-74
2021/07/30 00:45:53;;;;;;;18.92;9.50;;;;;;;;;;6165282;28;20041;-70
2021/07/30 00:48:55;;;;;;;14.85;9.73;;;;;;;;;;6193951;28;20663;-71
2021/07/30 00:51:58;;;;;;;13.82;9.88;;;;;;;;;;6187589;28;20046;-73
2021/07/30 00:54:59;;;;;;;;;;;;;;;;;;6196979;28;20521;-70
2021/07/30 00:58:01;;;;;;;17.70;9.52;;;;;;;;;;6191640;28;20434;-70
2021/07/30 01:01:03;;;;;;;16.52;8.88;;;;;;;;;;6176205;28;20422;-74
2021/07/30 01:04:04;;;;;;;14.38;9.55;;;;;;;;;;6189885;28;20486;-71
2021/07/30 01:07:07;;;;;;;11.57;8.85;;;;;;;;;;6190383;28;20046;-71
2021/07/30 01:10:09;;;;;;;12.02;9.60;;;;;;;;;;6191736;28;20045;-74
2021/07/30 01:13:11;;;;;;;16.80;9.63;;;;;;;;;;6194002;28;20516;-70
2021/07/30 01:16:13;;;;;;;15.50;10.15;;;;;;;;;;6188239;28;20365;-72
2021/07/30 01:19:21;;;;;;;13.10;10.25;;;;;;;;;;6198530;28;20799;-74
2021/07/30 01:22:25;;;;;;;16.80;11.70;;;;;;;;;;6189077;28;20062;-71
2021/07/30 01:25:29;;;;;;;16.13;11.20;;;;;;;;;;6191256;28;20274;-71
2021/07/30 01:28:31;;;;;;;15.95;11.07;;;;;;;;;;6197118;28;20065;-71
2021/07/30 01:31:33;;;;;;;16.17;11.98;;;;;;;;;;6183447;28;20038;-73
2021/07/30 01:34:34;;;;;;;15.65;10.90;;;;;;;;;;6192005;28;20182;-71
2021/07/30 01:37:36;;;;;;;15.05;10.38;;;;;;;;;;6183270;28;20076;-70
2021/07/30 01:40:39;;;;;;;13.85;11.15;;;;;;;;;;6188273;28;20064;-74
2021/07/30 01:43:42;;;;;;;12.32;10.20;;;;;;;;;;6195962;28;20072;-70
2021/07/30 01:46:43;;;;;;;14.25;11.00;;;;;;;;;;6182761;28;20129;-70
2021/07/30 01:49:45;;;;;;;13.68;11.35;;;;;;;;;;6190840;28;20042;-72
2021/07/30 01:52:46;;;;;;;16.70;11.38;;;;;;;;;;6189906;28;20490;-70
2021/07/30 01:55:49;;;;;;;14.88;11.38;;;;;;;;;;6196253;28;20513;-75
2021/07/30 01:58:51;;;;;;;16.10;11.35;;;;;;;;;;6193345;28;20042;-70
2021/07/30 02:01:53;;;;;;;13.88;11.52;;;;;;;;;;6174234;28;21237;-71
2021/07/30 02:04:54;;;;;;;17.48;11.98;;;;;;;;;;6194735;28;20062;-75
2021/07/30 02:07:56;;;;;;;17.90;11.43;;;;;;;;;;6187543;28;20058;-71
2021/07/30 02:10:58;;;;;;;16.30;11.68;;;;;;;;;;6190428;28;20044;-73
2021/07/30 02:14:15;;;;;;;19.83;11.50;;;;;;;;;;6198355;28;20050;-71
2021/07/30 02:17:17;;;;;;;16.88;11.15;;;;;;;;;;6182235;28;20038;-74
2021/07/30 02:20:18;;;;;;;14.05;11.13;;;;;;;;;;6184456;28;20045;-73
2021/07/30 02:23:20;;;;;;;17.48;11.45;;;;;;;;;;6189366;28;20042;-74
2021/07/30 02:26:23;;;;;;;17.35;11.07;;;;;;;;;;6191659;28;20121;-70
2021/07/30 02:29:24;;;;;;;12.55;11.25;;;;;;;;;;6199131;28;20449;-71
2021/07/30 02:32:26;;;;;;;14.68;10.40;;;;;;;;;;6181841;28;20133;-71
2021/07/30 02:35:28;;;;;;;16.63;11.10;;;;;;;;;;6190272;28;20407;-71
2021/07/30 02:38:29;;;;;;;15.10;11.05;;;;;;;;;;6198153;28;20145;-71
2021/07/30 02:41:32;;;;;;;16.88;11.15;;;;;;;;;;6195642;28;20069;-70
2021/07/30 02:44:34;;;;;;;14.30;10.60;;;;;;;;;;6204370;28;20080;-69
2021/07/30 02:47:35;;;;;;;13.52;10.52;;;;;;;;;;6189585;28;20049;-72
2021/07/30 02:50:37;;;;;;;14.93;11.00;;;;;;;;;;6191750;28;20062;-71
2021/07/30 02:53:39;;;;;;;16.17;10.85;;;;;;;;;;6200310;28;20085;-71
2021/07/30 02:56:42;;;;;;;20.67;10.88;;;;;;;;;;6196264;28;20061;-72
2021/07/30 02:59:43;;;;;;;15.43;10.55;;;;;;;;;;6205840;28;20117;-71
2021/07/30 03:02:45;;;;;;;16.25;11.30;;;;;;;;;;6179049;28;20526;-72
2021/07/30 03:05:47;;;;;;;13.45;10.30;;;;;;;;;;6193358;28;20108;-70
2021/07/30 03:08:48;;;;;;;16.27;11.05;;;;;;;;;;6198449;28;20541;-73
2021/07/30 03:11:52;;;;;;;15.27;11.02;;;;;;;;;;6193434;28;20054;-71
2021/07/30 03:14:53;;;;;;;15.05;10.60;;;;;;;;;;6202931;28;20641;-73
2021/07/30 03:17:55;;;;;;;16.92;10.85;;;;;;;;;;6177660;28;20456;-75
2021/07/30 03:20:57;;;;;;;16.25;10.93;;;;;;;;;;6188794;28;20148;-71
2021/07/30 03:23:58;;;;;;;14.52;10.65;;;;;;;;;;6202976;28;20136;-71
2021/07/30 03:27:01;;;;;;;16.65;10.63;;;;;;;;;;6193365;28;20074;-73
2021/07/30 03:30:04;;;;;;;15.55;11.27;;;;;;;;;;6205874;28;20136;-75
2021/07/30 03:33:05;;;;;;;14.85;10.80;;;;;;;;;;6181637;28;20054;-71
2021/07/30 03:36:07;;;;;;;14.23;11.80;;;;;;;;;;6190972;28;20046;-70
2021/07/30 03:39:09;;;;;;;16.30;10.70;;;;;;;;;;6202453;28;20038;-72
2021/07/30 03:42:12;;;;;;;13.73;10.20;;;;;;;;;;6188133;28;20046;-71
2021/07/30 03:45:13;;;;;;;15.75;11.40;;;;;;;;;;6197160;28;20215;-74
2021/07/30 03:48:15;;;;;;;22.70;10.75;;;;;;;;;;6189232;28;20042;-71
2021/07/30 03:51:16;;;;;;;15.60;11.20;;;;;;;;;;6186810;28;20133;-70
2021/07/30 03:54:18;;;;;;;15.32;11.30;;;;;;;;;;6196228;28;20050;-70
2021/07/30 03:57:21;;;;;;;21.10;11.80;;;;;;;;;;6197287;28;20127;-70
2021/07/30 04:00:23;;;;;;;17.02;11.20;;;;;;;;;;6192280;28;20058;-75
2021/07/30 04:03:24;;;;;;;16.73;11.23;;;;;;;;;;6190751;28;20054;-71
2021/07/30 04:06:26;;;;;;;16.13;11.45;;;;;;;;;;6189960;28;20058;-70
2021/07/30 04:09:27;;;;;;;18.85;12.27;;;;;;;;;;6202547;28;20096;-73
2021/07/30 04:12:30;;;;;;;16.63;11.32;;;;;;;;;;6192145;28;20501;-71
2021/07/30 04:15:32;;;;;;;17.48;11.38;;;;;;;;;;6186296;28;20116;-74
2021/07/30 04:18:34;;;;;;;14.25;11.48;;;;;;;;;;6196047;28;20101;-70
2021/07/30 04:21:38;;;;;;;17.33;11.90;;;;;;;;;;6196112;28;20197;-69
2021/07/30 04:24:39;;;;;;;14.35;11.25;;;;;;;;;;6210089;28;20137;-69
2021/07/30 04:27:42;;;;;;;18.85;12.63;;;;;;;;;;6197018;28;20124;-69
2021/07/30 04:30:44;;;;;;;13.07;11.40;;;;;;;;;;6190306;28;20127;-75
2021/07/30 04:33:46;;;;;;;15.57;10.85;;;;;;;;;;6197748;28;20177;-70
2021/07/30 04:36:47;;;;;;;13.00;10.60;;;;;;;;;;6203687;28;20526;-70
2021/07/30 04:39:49;;;;;;;14.82;11.25;;;;;;;;;;6204442;28;20038;-70
2021/07/30 04:42:52;;;;;;;15.65;10.77;;;;;;;;;;6190955;28;20124;-72
2021/07/30 04:45:53;;;;;;;16.05;11.05;;;;;;;;;;6186752;28;20053;-76
2021/07/30 04:48:55;;;;;;;17.05;11.02;;;;;;;;;;6184612;28;20061;-76
2021/07/30 04:51:56;;;;;;;15.45;11.15;;;;;;;;;;6188226;28;20068;-73
2021/07/30 04:54:58;;;;;;;17.70;11.13;;;;;;;;;;6198938;28;20763;-70
2021/07/30 04:58:01;;;;;;;15.32;11.63;;;;;;;;;;6194045;28;20042;-70
2021/07/30 05:01:05;;;;;;;16.35;11.85;;;;;;;;;;6192895;28;20109;-72
2021/07/30 05:04:08;;;;;;;14.90;11.38;;;;;;;;;;6198472;28;20042;-70
2021/07/30 05:07:09;;;;;;;13.25;11.45;;;;;;;;;;6190958;28;20053;-70
2021/07/30 05:10:11;;;;;;;15.68;11.18;;;;;;;;;;6196216;28;20129;-75
2021/07/30 05:13:14;;;;;;;15.32;11.07;;;;;;;;;;6201587;28;20082;-70
2021/07/30 05:16:16;;;;;;;15.68;10.75;;;;;;;;;;6183311;28;20474;-73
2021/07/30 05:19:17;;;;;;;16.83;12.07;;;;;;;;;;6201446;28;20081;-71
2021/07/30 05:22:19;;;;;;;15.00;12.13;;;;;;;;;;6190373;28;21699;-70
2021/07/30 05:25:21;;;;;;;17.23;11.50;;;;;;;;;;6190584;28;20573;-75
2021/07/30 05:28:24;;;;;;;21.90;12.95;;;;;;;;;;6194321;28;20136;-71
2021/07/30 05:31:25;;;;;;;16.23;12.07;;;;;;;;;;6196267;28;20093;-69
2021/07/30 05:34:27;;;;;;;17.88;11.55;;;;;;;;;;6194192;28;20104;-70
2021/07/30 05:37:29;;;;;;;18.63;12.02;;;;;;;;;;6194584;28;20179;-71
2021/07/30 05:40:30;;;;;;;15.88;11.38;;;;;;;;;;6200064;28;20188;-76
2021/07/30 05:43:34;;;;;;;13.90;10.68;;;;;;;;;;6198726;28;20046;-73
2021/07/30 05:46:38;;;;;;;12.43;10.93;;;;;;;;;;6188330;28;20085;-71
2021/07/30 05:49:39;;;;;;;17.55;11.25;;;;;;;;;;6203478;28;20137;-69
2021/07/30 05:52:41;;;;;;;13.38;11.07;;;;;;;;;;6192639;28;20042;-69
2021/07/30 05:55:42;;;;;;;13.98;10.35;;;;;;;;;;6195736;28;20066;-72
2021/07/30 05:58:45;;;;;;;10.70;9.65;;;;;;;;;;6199557;28;20526;-73
2021/07/30 06:01:47;;;;;;;15.23;9.52;;;;;;;;;;6190971;28;20129;-71
2021/07/30 06:04:48;;;;;;;10.75;8.93;;;;;;;;;;6203043;28;20760;-70
2021/07/30 06:07:50;;;;;;;15.70;9.98;;;;;;;;;;6192358;28;20046;-71
2021/07/30 06:10:51;;;;;;;14.57;9.65;;;;;;;;;;6187107;28;20184;-71
2021/07/30 06:13:54;;;;;;;12.65;9.52;;;;;;;;;;6204609;28;20533;-71
2021/07/30 06:16:56;;;;;;;16.80;9.23;;;;;;;;;;6196218;28;20137;-70
2021/07/30 06:19:58;;;;;;;12.63;7.97;;;;;;;;;;6201230;28;20185;-70
2021/07/30 06:22:59;;;;;;;10.52;7.88;;;;;;;;;;6199748;28;20414;-70
2021/07/30 06:26:01;;;;;;;11.43;7.82;;;;;;;;;;6203269;28;20038;-72
2021/07/30 06:29:04;;;;;;;12.60;7.50;;;;;;;;;;6203723;28;20398;-70
2021/07/30 06:32:06;;;;;;;11.05;7.68;;;;;;;;;;6198742;28;20119;-70
2021/07/30 06:35:09;;;;;;;12.32;7.53;;;;;;;;;;6199198;28;20447;-70
2021/07/30 06:38:10;;;;;;;17.80;8.15;;;;;;;;;;6202986;28;20048;-70
2021/07/30 06:41:17;;;;;;;15.15;6.90;;;;;;;;;;6199114;28;20119;-70
2021/07/30 06:44:20;;;;;;;13.52;7.53;;;;;;;;;;6211249;28;20192;-70
2021/07/30 06:47:23;;;;;;;8.57;6.90;;;;;;;;;;6186385;28;20133;-73
2021/07/30 06:50:25;;;;;;;10.63;7.65;;;;;;;;;;6187635;28;20111;-75
2021/07/30 06:53:27;;;;;;;13.90;7.20;;;;;;;;;;6204352;28;20098;-71
2021/07/30 06:56:29;;;;;;;10.18;7.22;;;;;;;;;;6198861;28;20449;-71
2021/07/30 06:59:32;;;;;;;8.88;7.20;;;;;;;;;;6210624;28;20049;-71
2021/07/30 07:02:33;;;;;;;12.48;7.88;;;;;;;;;;6184470;28;20047;-70
2021/07/30 07:05:35;;;;;;;15.93;8.23;;;;;;;;;;6191588;28;20144;-71
2021/07/30 07:08:36;;;;;;;9.88;7.78;;;;;;;;;;6205392;28;20039;-71
2021/07/30 07:11:38;;;;;;;13.77;7.95;;;;;;;;;;6196486;28;20041;-72
2021/07/30 07:14:41;;;;;;;11.52;6.82;;;;;;;;;;6202961;28;20554;-71
2021/07/30 07:17:42;;;;;;;;;;;;;;;;;;6188643;28;20062;-72
2021/07/30 07:20:44;;;;;;;9.13;7.00;;;;;;;;;;6185742;28;19973;-72
2021/07/30 07:23:46;;;;;;;10.80;6.47;;;;;;;;;;6194402;28;20046;-71
2021/07/30 07:26:47;;;;;;;9.25;6.88;;;;;;;;;;6199637;28;20054;-73
2021/07/30 07:29:50;;;;;;;11.73;7.40;;;;;;;;;;6207614;28;20042;-71
2021/07/30 07:32:51;;;;;;;;;;;;;;;;;;6192657;28;20453;-72
2021/07/30 07:35:54;;;;;;;10.00;6.68;;;;;;;;;;6189703;28;19921;-72
2021/07/30 07:38:55;;;;;;;11.35;7.32;;;;;;;;;;6202121;28;20057;-71
2021/07/30 07:41:57;;;;;;;9.20;7.75;;;;;;;;;;6196212;28;20084;-71
2021/07/30 07:45:03;;;;;;;9.13;7.20;;;;;;;;;;6206394;28;20126;-70
2021/07/30 07:48:05;;;;;;;9.82;7.03;;;;;;;;;;6181229;28;20483;-73
2021/07/30 07:51:07;;;;;;;10.20;7.03;;;;;;;;;;6187878;28;20601;-70
2021/07/30 07:54:10;;;;;;;9.57;6.60;;;;;;;;;;6192667;28;20054;-69
2021/07/30 07:57:12;;;;;;;8.97;6.40;;;;;;;;;;6187424;28;20465;-70
2021/07/30 08:00:16;;;;;;;12.82;6.18;;;;;;;;;;6197077;28;20046;-72
2021/07/30 08:03:18;;;;;;;15.77;6.68;;;;;;;;;;6188761;28;20144;-73
2021/07/30 08:06:22;;;;;;;7.78;6.40;;;;;;;;;;6185631;28;20046;-69
2021/07/30 08:09:24;;;;;;;10.57;6.05;;;;;;;;;;6198608;28;20058;-71
2021/07/30 08:12:26;;;;;;;11.18;6.55;;;;;;;;;;6184023;28;20050;-70
2021/07/30 08:15:30;;;;;;;9.23;6.15;;;;;;;;;;6186327;28;20046;-70
2021/07/30 08:18:32;;;;;;;7.13;5.97;;;;;;;;;;6188917;28;20614;-71
2021/07/30 08:21:34;;;;;;;9.73;6.15;;;;;;;;;;6182630;28;20065;-70
2021/07/30 08:24:37;;;;;;;12.82;6.53;;;;;;;;;;6194686;28;20132;-70
2021/07/30 08:27:39;;;;;;;7.50;6.15;;;;;;;;;;6190223;28;20049;-70
2021/07/30 08:30:44;;;;;;;11.13;5.73;;;;;;;;;;6198815;28;20054;-71
2021/07/30 08:33:46;;;;;;;10.85;6.45;;;;;;;;;;6198436;28;20472;-71
2021/07/30 08:36:48;;;;;;;9.13;6.05;;;;;;;;;;6199126;28;20052;-70
2021/07/30 08:39:50;;;;;;;8.43;5.97;;;;;;;;;;6196770;28;20050;-70
2021/07/30 08:42:53;;;;;;;7.03;5.53;;;;;;;;;;6184794;28;20067;-70
2021/07/30 08:45:57;;;;;;;8.18;5.65;;;;;;;;;;6184685;28;20117;-70
2021/07/30 08:48:59;;;;;;;8.43;5.68;;;;;;;;;;6181478;28;20054;-72
2021/07/30 08:52:07;;;;;;;7.97;6.22;;;;;;;;;;6185064;28;20046;-70
2021/07/30 08:55:11;;;;;;;10.85;5.90;;;;;;;;;;6192444;28;20503;-74
2021/07/30 08:58:14;;;;;;;7.10;5.75;;;;;;;;;;6185906;28;20126;-70
2021/07/30 09:01:17;;;;;;;7.43;5.63;;;;;;;;;;6182781;28;20388;-70
2021/07/30 09:04:27;;;;;;;9.35;6.28;;;;;;;;;;6193777;28;20065;-71
2021/07/30 09:07:39;;;;;;;10.65;6.65;;;;;;;;;;6187134;28;20051;-74
2021/07/30 09:10:42;;;;;;;;;;;;;;;;;;6185731;28;20046;-71
2021/07/30 09:13:44;;;;;;;7.82;5.97;;;;;;;;;;6194196;28;19922;-71
2021/07/30 09:16:51;;;;;;;;;;;;;;;;;;6178389;28;20544;-70
2021/07/30 09:20:00;;;;;;;10.02;5.80;;;;;;;;;;6190101;28;19930;-74
2021/07/30 09:23:03;;;;;;;10.20;5.95;;;;;;;;;;6185282;28;20422;-72
2021/07/30 09:26:06;;;;;;;8.55;6.65;;;;;;;;;;6189708;28;20050;-70
2021/07/30 09:29:11;;;;;;;13.68;6.35;;;;;;;;;;6198125;28;20078;-70
2021/07/30 09:32:16;;;;;;;7.97;6.10;;;;;;;;;;6188426;28;20054;-73
2021/07/30 09:35:18;;;;;;;12.85;5.82;;;;;;;;;;6186862;28;20058;-73
2021/07/30 09:38:20;;;;;;;8.02;5.97;;;;;;;;;;6191820;28;20124;-72
2021/07/30 09:41:23;;;;;;;11.37;6.73;;;;;;;;;;6189283;28;20197;-71
2021/07/30 09:44:25;;;;;;;6.95;5.55;;;;;;;;;;6201196;28;20070;-71
2021/07/30 09:47:29;;;;;;;7.15;5.18;;;;;;;;;;6181201;28;20156;-71
2021/07/30 09:50:31;;;;;;;8.20;5.82;;;;;;;;;;6186682;28;20050;-72
2021/07/30 09:53:33;;;;;;;9.20;6.00;;;;;;;;;;6197674;28;20482;-70
2021/07/30 09:56:36;;;;;;;7.72;5.93;;;;;;;;;;6194043;28;20173;-70
2021/07/30 09:59:41;;;;;;;7.22;5.22;;;;;;;;;;6202155;28;20052;-70
2021/07/30 10:02:45;;;;;;;8.45;5.82;;;;;;;;;;6175294;28;20068;-73
2021/07/30 10:05:51;;;;;;;9.98;5.68;;;;;;;;;;6194317;28;20136;-72
2021/07/30 10:08:53;;;;;;;11.25;6.15;;;;;;;;;;6205707;28;20057;-69
2021/07/30 10:11:55;;;;;;;13.13;6.10;;;;;;;;;;6193352;28;20137;-69
2021/07/30 10:14:59;;;;;;;9.35;5.57;;;;;;;;;;6201439;28;20053;-70
2021/07/30 10:18:04;;;;;;;7.03;5.78;;;;;;;;;;6186728;28;20046;-74
2021/07/30 10:21:07;;;;;;;12.30;5.97;;;;;;;;;;6188959;28;20042;-74
2021/07/30 10:24:09;;;;;;;6.68;5.80;;;;;;;;;;6195874;28;20449;-70
2021/07/30 10:27:12;;;;;;;8.20;5.95;;;;;;;;;;6193573;28;20057;-70
2021/07/30 10:30:16;;;;;;;10.38;6.95;;;;;;;;;;6197884;28;20481;-74
2021/07/30 10:33:48;;;;;;;7.72;6.10;;;;;;;;;;6191197;28;20051;-74
2021/07/30 10:36:50;;;;;;;9.02;6.68;;;;;;;;;;6189907;28;20041;-70
2021/07/30 10:40:16;;;;;;;9.93;6.27;;;;;;;;;;6203805;28;20042;-69
2021/07/30 10:43:18;;;;;;;15.23;7.13;;;;;;;;;;6202770;28;20557;-70
2021/07/30 10:46:21;;;;;;;9.82;6.68;;;;;;;;;;6196575;28;20049;-70
2021/07/30 10:49:42;;;;;;;8.45;6.57;;;;;;;;;;6196646;28;20057;-70
2021/07/30 10:52:44;;;;;;;7.20;6.50;;;;;;;;;;6205806;28;20046;-69
2021/07/30 10:55:46;;;;;;;11.17;6.83;;;;;;;;;;6210800;28;20139;-71
2021/07/30 10:59:05;;;;;;;10.10;6.32;;;;;;;;;;6214535;28;20053;-70
2021/07/30 11:02:07;;;;;;;7.97;5.68;;;;;;;;;;6189395;28;20043;-72
2021/07/30 11:05:11;;;;;;;6.35;5.75;;;;;;;;;;6203688;28;20061;-74
2021/07/30 11:08:13;;;;;;;7.97;5.85;;;;;;;;;;6193000;28;20051;-73
2021/07/30 11:11:35;;;;;;;8.73;5.85;;;;;;;;;;6190486;28;20860;-71
2021/07/30 11:14:40;;;;;;;10.02;6.30;;;;;;;;;;6209615;28;20490;-69
2021/07/30 11:17:42;;;;;;;10.07;6.10;;;;;;;;;;6183420;28;20494;-70
2021/07/30 11:20:58;;;;;;;9.82;7.05;;;;;;;;;;6204387;28;20050;-69
2021/07/30 11:24:00;;;;;;;11.38;7.43;;;;;;;;;;6201674;28;20131;-72
2021/07/30 11:27:02;;;;;;;11.20;8.20;;;;;;;;;;6194787;28;20564;-72
2021/07/30 11:30:06;;;;;;;9.55;7.35;;;;;;;;;;6199658;28;20050;-71
2021/07/30 11:33:08;;;;;;;13.23;8.40;;;;;;;;;;6183295;28;20410;-72
2021/07/30 11:36:13;;;;;;;9.47;7.77;;;;;;;;;;6194044;28;20050;-71
2021/07/30 11:39:15;;;;;;;13.57;8.63;;;;;;;;;;6199771;28;20487;-71
2021/07/30 11:42:25;;;;;;;10.00;8.05;;;;;;;;;;6190571;28;20494;-71
2021/07/30 11:45:27;;;;;;;8.70;7.80;;;;;;;;;;6194724;28;20073;-74
2021/07/30 11:48:30;;;;;;;11.70;7.57;;;;;;;;;;6189841;28;20054;-72
2021/07/30 11:51:33;;;;;;;10.35;6.90;;;;;;;;;;6187588;28;20051;-71
2021/07/30 11:54:36;;;;;;;9.00;6.82;;;;;;;;;;6196149;28;20054;-71
2021/07/30 11:57:37;;;;;;;12.55;7.53;;;;;;;;;;6190801;28;20061;-72
2021/07/30 12:00:40;;;;;;;10.10;7.03;;;;;;;;;;6187543;28;20051;-72
2021/07/30 12:03:41;;;;;;;9.00;8.07;;;;;;;;;;6190853;28;20106;-70
2021/07/30 12:06:48;;;;;;;10.43;8.20;;;;;;;;;;6185145;28;20038;-74
2021/07/30 12:09:54;;;;;;;12.73;9.60;;;;;;;;;;6195987;28;20061;-71
2021/07/30 12:12:59;;;;;;;15.52;9.20;;;;;;;;;;6185861;28;20049;-70
2021/07/30 12:16:01;;;;;;;11.18;9.02;;;;;;;;;;6184564;28;20067;-71
2021/07/30 12:19:03;;;;;;;14.35;9.48;;;;;;;;;;6194113;28;20129;-70
2021/07/30 12:22:08;;;;;;;11.38;9.13;;;;;;;;;;6185613;28;20038;-70
2021/07/30 12:25:16;;;;;;;13.13;8.45;;;;;;;;;;6190736;28;20069;-71
2021/07/30 12:28:18;;;;;;;10.63;7.75;;;;;;;;;;6192319;28;20401;-71
2021/07/30 12:31:21;;;;;;;9.63;7.78;;;;;;;;;;6194528;28;20069;-70
2021/07/30 12:34:23;;;;;;;12.15;7.82;;;;;;;;;;6206688;28;20115;-70
2021/07/30 12:37:28;;;;;;;7.88;7.07;;;;;;;;;;6202531;28;20090;-70
2021/07/30 12:40:30;;;;;;;12.25;8.25;;;;;;;;;;6200850;28;20564;-74
2021/07/30 12:43:37;;;;;;;;;;;;;;;;;;6199761;28;20050;-70
2021/07/30 12:46:42;;;;;;;11.18;8.05;;;;;;;;;;6175710;28;19936;-73
2021/07/30 12:49:44;;;;;;;10.70;8.98;;;;;;;;;;6196742;28;20049;-70
2021/07/30 12:53:07;;;;;;;9.30;8.00;;;;;;;;;;6189079;28;20259;-70
2021/07/30 12:56:10;;;;;;;14.25;8.75;;;;;;;;;;6191117;28;20041;-69
2021/07/30 12:59:12;;;;;;;9.07;8.15;;;;;;;;;;6194329;28;20044;-70
2021/07/30 13:02:14;;;;;;;12.88;9.32;;;;;;;;;;6177430;28;20131;-75
2021/07/30 13:05:18;;;;;;;9.13;7.68;;;;;;;;;;6188645;28;20042;-73
2021/07/30 13:08:24;;;;;;;9.63;8.63;;;;;;;;;;6193348;28;20054;-70
2021/07/30 13:11:26;;;;;;;10.05;7.82;;;;;;;;;;6187327;28;20120;-70
2021/07/30 13:14:28;;;;;;;11.20;7.50;;;;;;;;;;6198398;28;20054;-70
2021/07/30 13:17:30;;;;;;;;;;;;;;;;;;6180079;28;20050;-70
2021/07/30 13:20:33;;;;;;;8.52;7.70;;;;;;;;;;6182277;28;19925;-74
2021/07/30 13:23:36;;;;;;;;;;;;;;;;;;6196445;28;20057;-70
2021/07/30 13:26:39;;;;;;;10.98;7.50;;;;;;;;;;6183350;28;20153;-70
2021/07/30 13:29:41;;;;;;;9.45;7.18;;;;;;;;;;6193130;28;20065;-70
2021/07/30 13:32:43;;;;;;;10.23;7.70;;;;;;;;;;6181373;28;20420;-70
2021/07/30 13:35:44;;;;;;;8.45;6.85;;;;;;;;;;6185411;28;20046;-70
2021/07/30 13:38:49;;;;;;;10.00;7.03;;;;;;;;;;6192958;28;20042;-71
2021/07/30 13:41:51;;;;;;;11.93;6.75;;;;;;;;;;6190603;28;20124;-71
2021/07/30 13:44:54;;;;;;;10.30;6.97;;;;;;;;;;6196133;28;20566;-71
2021/07/30 13:47:56;;;;;;;9.38;6.28;;;;;;;;;;6172682;28;20474;-71
2021/07/30 13:50:59;;;;;;;9.98;6.35;;;;;;;;;;6182802;28;20120;-70
2021/07/30 13:54:03;;;;;;;9.05;6.20;;;;;;;;;;6194323;28;20042;-70
2021/07/30 13:57:08;;;;;;;8.40;5.70;;;;;;;;;;6184416;28;20062;-74
2021/07/30 14:00:11;;;;;;;6.57;5.88;;;;;;;;;;6187089;28;20101;-75
2021/07/30 14:03:13;;;;;;;7.80;6.03;;;;;;;;;;6181013;28;20526;-70
2021/07/30 14:06:16;;;;;;;6.78;6.07;;;;;;;;;;6184054;28;20051;-70
2021/07/30 14:09:19;;;;;;;8.55;6.45;;;;;;;;;;6193125;28;20053;-72
2021/07/30 14:12:21;;;;;;;8.18;6.18;;;;;;;;;;6183970;28;20062;-70
2021/07/30 14:15:23;;;;;;;;;;;;;;;;;;6190722;28;20058;-74
2021/07/30 14:18:25;;;;;;;7.93;6.00;;;;;;;;;;6185683;28;19928;-70
2021/07/30 14:21:27;;;;;;;8.02;6.22;;;;;;;;;;6186058;28;20133;-70
2021/07/30 14:24:31;;;;;;;8.07;6.03;;;;;;;;;;6192581;28;20173;-70
2021/07/30 14:27:33;;;;;;;8.07;5.50;;;;;;;;;;6187504;28;20054;-72
2021/07/30 14:30:35;;;;;;;7.63;6.07;;;;;;;;;;6180250;28;20268;-73
2021/07/30 14:33:38;;;;;;;7.03;6.35;;;;;;;;;;6188334;28;20160;-71
2021/07/30 14:36:40;;;;;;;7.80;6.18;;;;;;;;;;6189096;28;20053;-71
2021/07/30 14:39:43;;;;;;;;;;;;;;;;;;6198537;28;20108;-70
2021/07/30 14:42:46;;;;;;;9.38;6.68;;;;;;;;;;6194127;28;20056;-70
2021/07/30 14:45:48;;;;;;;9.55;6.85;;;;;;;;;;6187270;28;20054;-70
2021/07/30 14:48:50;;;;;;;9.32;6.20;;;;;;;;;;6192914;28;20052;-70
2021/07/30 14:51:54;;;;;;;9.70;6.55;;;;;;;;;;6188023;28;20164;-72
2021/07/30 14:54:57;;;;;;;7.53;6.18;;;;;;;;;;6196301;28;20050;-70
2021/07/30 14:58:00;;;;;;;6.65;5.88;;;;;;;;;;6192676;28;20046;-70
2021/07/30 15:01:05;;;;;;;6.68;6.07;;;;;;;;;;6188838;28;20200;-75
2021/07/30 15:04:07;;;;;;;11.00;6.70;;;;;;;;;;6195335;28;20154;-70
2021/07/30 15:07:09;;;;;;;8.02;6.40;;;;;;;;;;6191333;28;20100;-73
2021/07/30 15:10:13;;;;;;;8.27;6.20;;;;;;;;;;6190830;28;20043;-70
2021/07/30 15:13:16;;;;;;;6.95;5.88;;;;;;;;;;6194912;28;20042;-69
2021/07/30 15:16:18;;;;;;;9.02;6.47;;;;;;;;;;6189624;28;20154;-70
2021/07/30 15:19:20;;;;;;;9.77;6.70;;;;;;;;;;6203334;28;20046;-71
2021/07/30 15:22:22;;;;;;;9.27;6.40;;;;;;;;;;6197536;28;20497;-74
2021/07/30 15:25:25;;;;;;;;;;;;;;;;;;6201664;28;20097;-73
2021/07/30 15:28:28;;;;;;;9.85;6.35;;;;;;;;;;6207006;28;19926;-71
2021/07/30 15:31:30;;;;;;;9.48;7.13;;;;;;;;;;6195645;28;20054;-71
2021/07/30 15:34:33;;;;;;;8.40;6.35;;;;;;;;;;6204810;28;20525;-71
2021/07/30 15:37:36;;;;;;;9.05;6.97;;;;;;;;;;6200344;28;20430;-70
2021/07/30 15:40:40;;;;;;;8.00;6.60;;;;;;;;;;6195901;28;20141;-70
2021/07/30 15:43:42;;;;;;;9.48;6.40;;;;;;;;;;6206962;28;20077;-71
2021/07/30 15:46:47;;;;;;;8.25;7.13;;;;;;;;;;6191810;28;20039;-71
2021/07/30 15:49:50;;;;;;;8.10;6.68;;;;;;;;;;6201541;28;20070;-71
2021/07/30 15:52:53;;;;;;;9.68;6.80;;;;;;;;;;6202721;28;20053;-71
2021/07/30 15:56:01;;;;;;;7.75;6.50;;;;;;;;;;6189464;28;20050;-71
2021/07/30 15:59:03;;;;;;;7.00;6.15;;;;;;;;;;6203625;28;20048;-70
2021/07/30 16:02:05;;;;;;;9.73;5.80;;;;;;;;;;6193464;28;20053;-70
2021/07/30 16:05:07;;;;;;;6.80;5.93;;;;;;;;;;6200603;28;20136;-76
2021/07/30 16:08:09;;;;;;;9.75;5.90;;;;;;;;;;6192048;28;20478;-77
2021/07/30 16:11:13;;;;;;;6.90;6.20;;;;;;;;;;6195334;28;20501;-71
2021/07/30 16:14:14;;;;;;;6.40;5.63;;;;;;;;;;6212937;28;20046;-73
2021/07/30 16:17:16;;;;;;;6.95;5.93;;;;;;;;;;6189978;28;20132;-77
2021/07/30 16:20:17;;;;;;;6.78;5.97;;;;;;;;;;6196469;28;20180;-73
2021/07/30 16:23:19;;;;;;;9.07;6.05;;;;;;;;;;6205261;28;20099;-71
2021/07/30 16:26:24;;;;;;;9.57;5.55;;;;;;;;;;6194061;28;20054;-75
2021/07/30 16:29:26;;;;;;;9.40;6.20;;;;;;;;;;6203462;28;20050;-74
2021/07/30 16:32:27;;;;;;;7.00;5.10;;;;;;;;;;6192272;28;20045;-71
2021/07/30 16:35:29;;;;;;;6.90;5.80;;;;;;;;;;6202295;28;20075;-73
2021/07/30 16:38:32;;;;;;;6.93;6.25;;;;;;;;;;6205155;28;20439;-72
2021/07/30 16:41:35;;;;;;;5.60;5.10;;;;;;;;;;6195696;28;20104;-71
2021/07/30 16:44:36;;;;;;;7.03;5.43;;;;;;;;;;6202764;28;20498;-71
2021/07/30 16:47:38;;;;;;;7.15;5.95;;;;;;;;;;6205087;28;20054;-68
2021/07/30 16:50:42;;;;;;;6.77;6.07;;;;;;;;;;6191741;28;20037;-72
2021/07/30 16:53:44;;;;;;;6.85;6.00;;;;;;;;;;6201525;28;20051;-73
2021/07/30 16:56:48;;;;;;;7.15;6.43;;;;;;;;;;6196688;28;20556;-71
2021/07/30 16:59:49;;;;;;;8.75;6.03;;;;;;;;;;6204164;28;20046;-70
2021/07/30 17:02:51;;;;;;;10.88;6.47;;;;;;;;;;6186845;28;20042;-71
2021/07/30 17:05:52;;;;;;;8.75;6.30;;;;;;;;;;6191743;28;20205;-72
2021/07/30 17:08:54;;;;;;;9.13;5.78;;;;;;;;;;6207885;28;20401;-71
2021/07/30 17:11:57;;;;;;;7.25;5.82;;;;;;;;;;6193005;28;20081;-72
2021/07/30 17:15:00;;;;;;;8.18;5.68;;;;;;;;;;6208843;28;20171;-68
2021/07/30 17:18:02;;;;;;;7.85;6.07;;;;;;;;;;6184966;28;20401;-72
2021/07/30 17:21:03;;;;;;;7.57;5.82;;;;;;;;;;6191938;28;20046;-72
2021/07/30 17:24:06;;;;;;;7.05;5.20;;;;;;;;;;6200302;28;20133;-74
2021/07/30 17:27:09;;;;;;;9.38;6.55;;;;;;;;;;6197549;28;20056;-71
2021/07/30 17:30:13;;;;;;;8.98;5.55;;;;;;;;;;6206283;28;20179;-78
2021/07/30 17:33:14;;;;;;;6.75;5.75;;;;;;;;;;6197001;28;20043;-71
2021/07/30 17:36:16;;;;;;;7.93;5.97;;;;;;;;;;6196500;28;20077;-72
2021/07/30 17:39:17;;;;;;;7.28;5.90;;;;;;;;;;6201298;28;20124;-71
2021/07/30 17:42:20;;;;;;;9.63;6.00;;;;;;;;;;6194669;28;20128;-74
2021/07/30 17:45:22;;;;;;;6.50;5.90;;;;;;;;;;6205101;28;20164;-77
2021/07/30 17:48:24;;;;;;;7.97;6.07;;;;;;;;;;6194618;28;20047;-72
2021/07/30 17:51:25;;;;;;;8.30;5.40;;;;;;;;;;6196512;28;20050;-72
2021/07/30 17:54:27;;;;;;;7.35;5.75;;;;;;;;;;6206816;28;20047;-71
2021/07/30 17:57:30;;;;;;;8.43;5.90;;;;;;;;;;6204750;28;20530;-72
2021/07/30 18:00:31;;;;;;;7.10;6.07;;;;;;;;;;6210129;28;20099;-76
2021/07/30 18:03:33;;;;;;;8.50;5.63;;;;;;;;;;6200754;28;20157;-77
2021/07/30 18:06:35;;;;;;;9.67;6.40;;;;;;;;;;6189299;28;20503;-72